Tarlton, Ohio
Current Conditions -  °F | °C
As of 2:53 AM on Thursday 23 Oct 2014 (Local Time) from KLHQ Reporting Station
Few Clouds Few Clouds  
Wind Chill: 42°   Ceiling: Unl
Heat Index: 44°   Visibility: 9mi
Dew Point: 40°   Wind: 5mph
Humidity: 85%   Direction: 320°NW
Pressure: 30.22"   Gusts: NA
Location:  39.56°N, 82.78°W
Report Text: KLHQ 230653Z AUTO 32004KT 9SM FEW039 07/04 A3022 RMK AO2 SLP237 T00670044
Loading
Personal Weather Stations






























Interactive Weather Map
Tropical Storm Tracking
New forecast layout! Learn more

10-Day Weather Forecast

Advertisements
Track Severe Weather on mobile